sensor_id;sensor_type;location;lat;lon;timestamp;temperature;humidity
66596;SHT31;59017;49.252;18.838;2023-01-13T00:00:57;20.57;49.94
66596;SHT31;59017;49.252;18.838;2023-01-13T00:03:22;20.60;49.97
66596;SHT31;59017;49.252;18.838;2023-01-13T00:05:47;20.60;49.85
66596;SHT31;59017;49.252;18.838;2023-01-13T00:08:12;20.60;50.18
66596;SHT31;59017;49.252;18.838;2023-01-13T00:10:38;20.57;50.10
66596;SHT31;59017;49.252;18.838;2023-01-13T00:13:03;20.56;49.78
66596;SHT31;59017;49.252;18.838;2023-01-13T00:15:29;20.59;50.06
66596;SHT31;59017;49.252;18.838;2023-01-13T00:17:54;20.59;49.93
66596;SHT31;59017;49.252;18.838;2023-01-13T00:20:20;20.57;50.19
66596;SHT31;59017;49.252;18.838;2023-01-13T00:22:45;20.57;50.16
66596;SHT31;59017;49.252;18.838;2023-01-13T00:25:10;20.59;49.86
66596;SHT31;59017;49.252;18.838;2023-01-13T00:27:36;20.57;50.27
66596;SHT31;59017;49.252;18.838;2023-01-13T00:30:01;20.57;49.81
66596;SHT31;59017;49.252;18.838;2023-01-13T00:32:27;20.60;50.59
66596;SHT31;59017;49.252;18.838;2023-01-13T00:34:52;20.62;50.24
66596;SHT31;59017;49.252;18.838;2023-01-13T00:37:18;20.59;49.42
66596;SHT31;59017;49.252;18.838;2023-01-13T00:39:43;20.57;50.17
66596;SHT31;59017;49.252;18.838;2023-01-13T00:42:09;20.60;50.15
66596;SHT31;59017;49.252;18.838;2023-01-13T00:44:53;20.63;49.82
66596;SHT31;59017;49.252;18.838;2023-01-13T00:47:18;20.62;50.09
66596;SHT31;59017;49.252;18.838;2023-01-13T00:49:44;20.60;50.35
66596;SHT31;59017;49.252;18.838;2023-01-13T00:52:09;20.60;50.09
66596;SHT31;59017;49.252;18.838;2023-01-13T00:54:35;20.63;50.60
66596;SHT31;59017;49.252;18.838;2023-01-13T00:57:00;20.60;50.48
66596;SHT31;59017;49.252;18.838;2023-01-13T00:59:25;20.63;50.75
66596;SHT31;59017;49.252;18.838;2023-01-13T01:01:50;20.65;50.79
66596;SHT31;59017;49.252;18.838;2023-01-13T01:04:16;20.63;50.59
66596;SHT31;59017;49.252;18.838;2023-01-13T01:06:41;20.65;50.13
66596;SHT31;59017;49.252;18.838;2023-01-13T01:09:06;20.59;50.74
66596;SHT31;59017;49.252;18.838;2023-01-13T01:11:32;20.60;50.39
66596;SHT31;59017;49.252;18.838;2023-01-13T01:13:58;20.60;50.70
66596;SHT31;59017;49.252;18.838;2023-01-13T01:16:25;20.59;50.78
66596;SHT31;59017;49.252;18.838;2023-01-13T01:18:51;20.62;50.52
66596;SHT31;59017;49.252;18.838;2023-01-13T01:21:16;20.60;50.33
66596;SHT31;59017;49.252;18.838;2023-01-13T01:23:42;20.59;50.14
66596;SHT31;59017;49.252;18.838;2023-01-13T01:26:12;20.60;50.35
66596;SHT31;59017;49.252;18.838;2023-01-13T01:28:37;20.55;49.95
66596;SHT31;59017;49.252;18.838;2023-01-13T01:31:07;20.59;50.82
66596;SHT31;59017;49.252;18.838;2023-01-13T01:33:32;20.59;50.44
66596;SHT31;59017;49.252;18.838;2023-01-13T01:35:59;20.57;50.57
66596;SHT31;59017;49.252;18.838;2023-01-13T01:38:24;20.56;50.51
66596;SHT31;59017;49.252;18.838;2023-01-13T01:40:49;20.53;50.47
66596;SHT31;59017;49.252;18.838;2023-01-13T01:43:15;20.59;50.66
66596;SHT31;59017;49.252;18.838;2023-01-13T01:46:00;20.59;50.98
66596;SHT31;59017;49.252;18.838;2023-01-13T01:48:26;20.59;50.64
66596;SHT31;59017;49.252;18.838;2023-01-13T01:50:52;20.62;50.65
66596;SHT31;59017;49.252;18.838;2023-01-13T01:53:17;20.60;50.36
66596;SHT31;59017;49.252;18.838;2023-01-13T01:55:44;20.57;50.52
66596;SHT31;59017;49.252;18.838;2023-01-13T01:58:14;20.59;50.92
66596;SHT31;59017;49.252;18.838;2023-01-13T02:00:39;20.62;50.90
66596;SHT31;59017;49.252;18.838;2023-01-13T02:03:05;20.60;50.95
66596;SHT31;59017;49.252;18.838;2023-01-13T02:05:31;20.60;50.32
66596;SHT31;59017;49.252;18.838;2023-01-13T02:07:58;20.56;50.98
66596;SHT31;59017;49.252;18.838;2023-01-13T02:10:25;20.56;50.75
66596;SHT31;59017;49.252;18.838;2023-01-13T02:12:52;20.55;50.87
66596;SHT31;59017;49.252;18.838;2023-01-13T02:20:41;20.57;50.96
66596;SHT31;59017;49.252;18.838;2023-01-13T02:31:32;20.55;51.13
66596;SHT31;59017;49.252;18.838;2023-01-13T02:34:09;20.56;50.62
66596;SHT31;59017;49.252;18.838;2023-01-13T02:36:42;20.56;50.81
66596;SHT31;59017;49.252;18.838;2023-01-13T02:39:26;20.59;50.84
66596;SHT31;59017;49.252;18.838;2023-01-13T02:44:47;20.56;50.83
66596;SHT31;59017;49.252;18.838;2023-01-13T02:47:19;20.56;50.78
66596;SHT31;59017;49.252;18.838;2023-01-13T02:49:56;20.53;50.46
66596;SHT31;59017;49.252;18.838;2023-01-13T02:54:50;20.56;50.76
66596;SHT31;59017;49.252;18.838;2023-01-13T02:57:18;20.51;50.52
66596;SHT31;59017;49.252;18.838;2023-01-13T02:59:44;20.52;50.73
66596;SHT31;59017;49.252;18.838;2023-01-13T03:02:11;20.49;50.72
66596;SHT31;59017;49.252;18.838;2023-01-13T03:10:06;20.51;51.20
66596;SHT31;59017;49.252;18.838;2023-01-13T03:17:48;20.52;51.30
66596;SHT31;59017;49.252;18.838;2023-01-13T03:20:21;20.52;50.76
66596;SHT31;59017;49.252;18.838;2023-01-13T03:22:59;20.51;51.44
66596;SHT31;59017;49.252;18.838;2023-01-13T03:25:28;20.53;50.67
66596;SHT31;59017;49.252;18.838;2023-01-13T03:27:56;20.53;51.37
66596;SHT31;59017;49.252;18.838;2023-01-13T03:32:48;20.56;51.46
66596;SHT31;59017;49.252;18.838;2023-01-13T03:37:44;20.62;51.39
66596;SHT31;59017;49.252;18.838;2023-01-13T03:40:14;20.62;51.58
66596;SHT31;59017;49.252;18.838;2023-01-13T03:42:42;20.62;51.09
66596;SHT31;59017;49.252;18.838;2023-01-13T03:45:31;20.60;50.87
66596;SHT31;59017;49.252;18.838;2023-01-13T03:47:58;20.59;50.70
66596;SHT31;59017;49.252;18.838;2023-01-13T03:50:25;20.60;51.27
66596;SHT31;59017;49.252;18.838;2023-01-13T03:52:54;20.60;51.00
66596;SHT31;59017;49.252;18.838;2023-01-13T03:55:28;20.59;51.43
66596;SHT31;59017;49.252;18.838;2023-01-13T03:58:08;20.62;51.77
66596;SHT31;59017;49.252;18.838;2023-01-13T04:00:43;20.57;51.39
66596;SHT31;59017;49.252;18.838;2023-01-13T04:03:11;20.59;51.46
66596;SHT31;59017;49.252;18.838;2023-01-13T04:05:40;20.59;51.88
66596;SHT31;59017;49.252;18.838;2023-01-13T04:08:11;20.66;51.74
66596;SHT31;59017;49.252;18.838;2023-01-13T04:10:43;20.66;51.49
66596;SHT31;59017;49.252;18.838;2023-01-13T04:13:11;20.66;51.04
66596;SHT31;59017;49.252;18.838;2023-01-13T04:15:41;20.72;51.48
66596;SHT31;59017;49.252;18.838;2023-01-13T04:18:14;20.73;51.52
66596;SHT31;59017;49.252;18.838;2023-01-13T04:20:40;20.80;51.93
66596;SHT31;59017;49.252;18.838;2023-01-13T04:23:06;20.42;45.83
66596;SHT31;59017;49.252;18.838;2023-01-13T04:25:31;20.29;48.68
66596;SHT31;59017;49.252;18.838;2023-01-13T04:27:57;20.42;48.42
66596;SHT31;59017;49.252;18.838;2023-01-13T04:30:22;20.51;48.39
66596;SHT31;59017;49.252;18.838;2023-01-13T04:32:47;20.57;48.24
66596;SHT31;59017;49.252;18.838;2023-01-13T04:35:13;20.62;48.06
66596;SHT31;59017;49.252;18.838;2023-01-13T04:37:38;20.68;48.05
66596;SHT31;59017;49.252;18.838;2023-01-13T04:40:04;20.72;47.97
66596;SHT31;59017;49.252;18.838;2023-01-13T04:42:29;20.75;48.05
66596;SHT31;59017;49.252;18.838;2023-01-13T04:44:54;20.77;48.02
66596;SHT31;59017;49.252;18.838;2023-01-13T04:47:20;20.83;48.17
66596;SHT31;59017;49.252;18.838;2023-01-13T04:49:45;20.84;48.13
66596;SHT31;59017;49.252;18.838;2023-01-13T04:52:11;20.84;48.29
66596;SHT31;59017;49.252;18.838;2023-01-13T04:54:36;20.87;48.16
66596;SHT31;59017;49.252;18.838;2023-01-13T04:57:01;20.87;48.13
66596;SHT31;59017;49.252;18.838;2023-01-13T04:59:27;20.91;48.47
66596;SHT31;59017;49.252;18.838;2023-01-13T05:01:52;20.91;48.45
66596;SHT31;59017;49.252;18.838;2023-01-13T05:04:17;20.94;48.52
66596;SHT31;59017;49.252;18.838;2023-01-13T05:06:42;20.90;48.56
66596;SHT31;59017;49.252;18.838;2023-01-13T05:09:09;20.94;48.73
66596;SHT31;59017;49.252;18.838;2023-01-13T05:11:35;20.93;48.68
66596;SHT31;59017;49.252;18.838;2023-01-13T05:14:19;20.90;48.44
66596;SHT31;59017;49.252;18.838;2023-01-13T05:17:21;20.91;49.14
66596;SHT31;59017;49.252;18.838;2023-01-13T05:19:47;20.93;48.97
66596;SHT31;59017;49.252;18.838;2023-01-13T05:22:13;20.91;48.97
66596;SHT31;59017;49.252;18.838;2023-01-13T05:24:57;20.91;48.87
66596;SHT31;59017;49.252;18.838;2023-01-13T05:27:41;20.91;48.99
66596;SHT31;59017;49.252;18.838;2023-01-13T05:30:06;20.91;48.73
66596;SHT31;59017;49.252;18.838;2023-01-13T05:32:32;20.90;48.63
66596;SHT31;59017;49.252;18.838;2023-01-13T05:34:57;20.86;48.88
66596;SHT31;59017;49.252;18.838;2023-01-13T05:37:22;20.83;48.84
66596;SHT31;59017;49.252;18.838;2023-01-13T05:39:48;20.81;48.78
66596;SHT31;59017;49.252;18.838;2023-01-13T05:42:32;20.81;49.02
66596;SHT31;59017;49.252;18.838;2023-01-13T05:45:16;20.77;48.78
66596;SHT31;59017;49.252;18.838;2023-01-13T05:47:42;20.77;49.01
66596;SHT31;59017;49.252;18.838;2023-01-13T05:50:07;20.73;48.78
66596;SHT31;59017;49.252;18.838;2023-01-13T05:52:33;20.73;48.86
66596;SHT31;59017;49.252;18.838;2023-01-13T05:54:58;20.69;48.98
66596;SHT31;59017;49.252;18.838;2023-01-13T05:57:23;20.69;48.48
66596;SHT31;59017;49.252;18.838;2023-01-13T05:59:49;20.69;48.70
66596;SHT31;59017;49.252;18.838;2023-01-13T06:02:14;20.68;49.00
66596;SHT31;59017;49.252;18.838;2023-01-13T06:04:39;20.65;48.76
66596;SHT31;59017;49.252;18.838;2023-01-13T06:07:04;20.66;48.64
66596;SHT31;59017;49.252;18.838;2023-01-13T06:09:30;20.63;48.71
66596;SHT31;59017;49.252;18.838;2023-01-13T06:11:56;20.68;48.67
66596;SHT31;59017;49.252;18.838;2023-01-13T06:14:21;20.65;48.51
66596;SHT31;59017;49.252;18.838;2023-01-13T06:16:47;20.60;48.57
66596;SHT31;59017;49.252;18.838;2023-01-13T06:19:12;20.62;48.28
66596;SHT31;59017;49.252;18.838;2023-01-13T06:21:38;20.60;48.51
66596;SHT31;59017;49.252;18.838;2023-01-13T06:24:03;20.62;48.99
66596;SHT31;59017;49.252;18.838;2023-01-13T06:26:29;20.59;48.87
66596;SHT31;59017;49.252;18.838;2023-01-13T06:28:56;20.60;48.91
66596;SHT31;59017;49.252;18.838;2023-01-13T06:31:21;20.60;48.87
66596;SHT31;59017;49.252;18.838;2023-01-13T06:33:48;20.60;48.73
66596;SHT31;59017;49.252;18.838;2023-01-13T06:36:15;20.59;48.64
66596;SHT31;59017;49.252;18.838;2023-01-13T06:38:42;20.62;48.68
66596;SHT31;59017;49.252;18.838;2023-01-13T06:41:10;20.60;48.69
66596;SHT31;59017;49.252;18.838;2023-01-13T06:43:35;20.59;48.41
66596;SHT31;59017;49.252;18.838;2023-01-13T06:46:02;20.59;48.80
66596;SHT31;59017;49.252;18.838;2023-01-13T06:48:28;20.60;48.65
66596;SHT31;59017;49.252;18.838;2023-01-13T06:50:57;20.62;48.57
66596;SHT31;59017;49.252;18.838;2023-01-13T06:53:22;20.63;48.54
66596;SHT31;59017;49.252;18.838;2023-01-13T06:55:47;20.65;48.56
66596;SHT31;59017;49.252;18.838;2023-01-13T06:58:12;20.60;48.57
66596;SHT31;59017;49.252;18.838;2023-01-13T07:00:38;20.62;48.48
66596;SHT31;59017;49.252;18.838;2023-01-13T07:03:05;20.60;48.60
66596;SHT31;59017;49.252;18.838;2023-01-13T07:05:31;20.60;48.43
66596;SHT31;59017;49.252;18.838;2023-01-13T07:07:56;20.65;48.48
66596;SHT31;59017;49.252;18.838;2023-01-13T07:10:21;20.63;48.47
66596;SHT31;59017;49.252;18.838;2023-01-13T07:12:47;20.66;48.56
66596;SHT31;59017;49.252;18.838;2023-01-13T07:15:31;20.62;48.45
66596;SHT31;59017;49.252;18.838;2023-01-13T07:17:57;20.63;48.32
66596;SHT31;59017;49.252;18.838;2023-01-13T07:20:23;20.63;48.66
66596;SHT31;59017;49.252;18.838;2023-01-13T07:22:52;20.65;48.53
66596;SHT31;59017;49.252;18.838;2023-01-13T07:25:17;20.62;48.68
66596;SHT31;59017;49.252;18.838;2023-01-13T07:27:42;20.63;48.57
66596;SHT31;59017;49.252;18.838;2023-01-13T07:30:08;20.63;48.75
66596;SHT31;59017;49.252;18.838;2023-01-13T07:32:33;20.65;48.53
66596;SHT31;59017;49.252;18.838;2023-01-13T07:34:59;20.65;48.49
66596;SHT31;59017;49.252;18.838;2023-01-13T07:37:30;20.65;48.61
66596;SHT31;59017;49.252;18.838;2023-01-13T07:39:55;20.66;48.44
66596;SHT31;59017;49.252;18.838;2023-01-13T07:42:21;20.65;48.56
66596;SHT31;59017;49.252;18.838;2023-01-13T07:45:05;20.65;48.33
66596;SHT31;59017;49.252;18.838;2023-01-13T07:47:30;20.65;48.50
66596;SHT31;59017;49.252;18.838;2023-01-13T07:49:55;20.65;48.35
66596;SHT31;59017;49.252;18.838;2023-01-13T07:52:21;20.66;48.64
66596;SHT31;59017;49.252;18.838;2023-01-13T07:54:46;20.69;48.57
66596;SHT31;59017;49.252;18.838;2023-01-13T07:57:11;20.66;48.69
66596;SHT31;59017;49.252;18.838;2023-01-13T07:59:37;20.63;48.65
66596;SHT31;59017;49.252;18.838;2023-01-13T08:02:02;20.63;48.38
66596;SHT31;59017;49.252;18.838;2023-01-13T08:04:27;20.65;48.37
66596;SHT31;59017;49.252;18.838;2023-01-13T08:06:52;20.66;48.27
66596;SHT31;59017;49.252;18.838;2023-01-13T08:09:18;20.63;48.59
66596;SHT31;59017;49.252;18.838;2023-01-13T08:11:43;20.66;48.36
66596;SHT31;59017;49.252;18.838;2023-01-13T08:14:09;20.65;48.15
66596;SHT31;59017;49.252;18.838;2023-01-13T08:16:34;20.68;48.29
66596;SHT31;59017;49.252;18.838;2023-01-13T08:19:00;20.65;48.21
66596;SHT31;59017;49.252;18.838;2023-01-13T08:21:25;20.68;48.47
66596;SHT31;59017;49.252;18.838;2023-01-13T08:23:50;20.66;48.22
66596;SHT31;59017;49.252;18.838;2023-01-13T08:26:16;20.66;48.21
66596;SHT31;59017;49.252;18.838;2023-01-13T08:28:42;20.65;48.30
66596;SHT31;59017;49.252;18.838;2023-01-13T08:31:11;20.68;48.50
66596;SHT31;59017;49.252;18.838;2023-01-13T08:33:37;20.68;48.41
66596;SHT31;59017;49.252;18.838;2023-01-13T08:36:03;20.66;48.09
66596;SHT31;59017;49.252;18.838;2023-01-13T08:38:28;20.68;48.15
66596;SHT31;59017;49.252;18.838;2023-01-13T08:40:54;20.68;48.19
66596;SHT31;59017;49.252;18.838;2023-01-13T08:43:19;20.68;48.24
66596;SHT31;59017;49.252;18.838;2023-01-13T08:45:44;20.68;48.07
66596;SHT31;59017;49.252;18.838;2023-01-13T08:48:10;20.69;48.17
66596;SHT31;59017;49.252;18.838;2023-01-13T08:50:35;20.66;48.07
66596;SHT31;59017;49.252;18.838;2023-01-13T08:53:00;20.68;48.26
66596;SHT31;59017;49.252;18.838;2023-01-13T08:55:25;20.68;48.34
66596;SHT31;59017;49.252;18.838;2023-01-13T08:57:51;20.70;48.27
66596;SHT31;59017;49.252;18.838;2023-01-13T09:00:16;20.68;48.28
66596;SHT31;59017;49.252;18.838;2023-01-13T09:02:42;20.66;48.42
66596;SHT31;59017;49.252;18.838;2023-01-13T09:05:08;20.66;48.07
66596;SHT31;59017;49.252;18.838;2023-01-13T09:07:34;20.69;48.71
66596;SHT31;59017;49.252;18.838;2023-01-13T09:10:00;20.68;48.79
66596;SHT31;59017;49.252;18.838;2023-01-13T09:12:26;20.72;48.38
66596;SHT31;59017;49.252;18.838;2023-01-13T09:15:10;20.76;48.80
66596;SHT31;59017;49.252;18.838;2023-01-13T09:17:35;20.75;49.03
66596;SHT31;59017;49.252;18.838;2023-01-13T09:20:00;20.72;49.06
66596;SHT31;59017;49.252;18.838;2023-01-13T09:22:26;20.76;49.11
66596;SHT31;59017;49.252;18.838;2023-01-13T09:24:52;20.75;48.98
66596;SHT31;59017;49.252;18.838;2023-01-13T09:27:17;20.75;48.94
66596;SHT31;59017;49.252;18.838;2023-01-13T09:29:42;20.72;48.91
66596;SHT31;59017;49.252;18.838;2023-01-13T09:32:11;20.73;49.03
66596;SHT31;59017;49.252;18.838;2023-01-13T09:34:36;20.75;48.98
66596;SHT31;59017;49.252;18.838;2023-01-13T09:37:20;20.72;48.86
66596;SHT31;59017;49.252;18.838;2023-01-13T09:39:46;20.73;48.79
66596;SHT31;59017;49.252;18.838;2023-01-13T09:45:03;20.72;48.41
66596;SHT31;59017;49.252;18.838;2023-01-13T09:47:48;20.73;48.18
66596;SHT31;59017;49.252;18.838;2023-01-13T09:51:04;20.70;48.54
66596;SHT31;59017;49.252;18.838;2023-01-13T09:53:18;20.73;48.72
66596;SHT31;59017;49.252;18.838;2023-01-13T09:55:45;20.70;48.91
66596;SHT31;59017;49.252;18.838;2023-01-13T09:58:16;20.70;48.58
66596;SHT31;59017;49.252;18.838;2023-01-13T10:05:43;20.77;48.74
66596;SHT31;59017;49.252;18.838;2023-01-13T10:08:19;20.75;48.60
66596;SHT31;59017;49.252;18.838;2023-01-13T10:10:50;20.79;48.62
66596;SHT31;59017;49.252;18.838;2023-01-13T10:13:17;20.76;49.02
66596;SHT31;59017;49.252;18.838;2023-01-13T10:16:30;20.76;49.07
66596;SHT31;59017;49.252;18.838;2023-01-13T10:24:04;20.53;47.68
66596;SHT31;59017;49.252;18.838;2023-01-13T10:29:18;20.65;47.32
66596;SHT31;59017;49.252;18.838;2023-01-13T10:31:44;20.66;47.25
66596;SHT31;59017;49.252;18.838;2023-01-13T10:34:09;20.66;47.32
66596;SHT31;59017;49.252;18.838;2023-01-13T10:36:36;20.69;47.15
66596;SHT31;59017;49.252;18.838;2023-01-13T10:39:08;20.70;47.39
66596;SHT31;59017;49.252;18.838;2023-01-13T10:41:34;20.73;47.09
66596;SHT31;59017;49.252;18.838;2023-01-13T10:44:03;20.75;47.29
66596;SHT31;59017;49.252;18.838;2023-01-13T10:46:33;20.77;47.25
66596;SHT31;59017;49.252;18.838;2023-01-13T10:49:01;20.77;47.03
66596;SHT31;59017;49.252;18.838;2023-01-13T10:51:41;20.80;47.26
66596;SHT31;59017;49.252;18.838;2023-01-13T10:56:35;20.83;47.09
66596;SHT31;59017;49.252;18.838;2023-01-13T10:59:21;20.81;47.22
66596;SHT31;59017;49.252;18.838;2023-01-13T11:06:55;20.86;47.37
66596;SHT31;59017;49.252;18.838;2023-01-13T11:09:21;20.84;47.56
66596;SHT31;59017;49.252;18.838;2023-01-13T11:11:46;20.86;47.26
66596;SHT31;59017;49.252;18.838;2023-01-13T11:17:46;20.89;47.39
66596;SHT31;59017;49.252;18.838;2023-01-13T11:19:47;20.87;47.48
66596;SHT31;59017;49.252;18.838;2023-01-13T11:22:15;20.87;47.27
66596;SHT31;59017;49.252;18.838;2023-01-13T11:27:14;20.86;47.49
66596;SHT31;59017;49.252;18.838;2023-01-13T11:30:02;20.86;47.58
66596;SHT31;59017;49.252;18.838;2023-01-13T11:32:34;20.84;47.44
66596;SHT31;59017;49.252;18.838;2023-01-13T11:35:02;20.84;47.72
66596;SHT31;59017;49.252;18.838;2023-01-13T11:37:31;20.86;47.55
66596;SHT31;59017;49.252;18.838;2023-01-13T11:40:11;20.86;47.51
66596;SHT31;59017;49.252;18.838;2023-01-13T11:47:35;20.84;47.68
66596;SHT31;59017;49.252;18.838;2023-01-13T11:50:01;20.83;47.54
66596;SHT31;59017;49.252;18.838;2023-01-13T11:52:31;20.83;47.87
66596;SHT31;59017;49.252;18.838;2023-01-13T11:57:30;20.83;47.86
66596;SHT31;59017;49.252;18.838;2023-01-13T12:02:51;20.84;47.89
66596;SHT31;59017;49.252;18.838;2023-01-13T12:07:51;20.86;47.93
66596;SHT31;59017;49.252;18.838;2023-01-13T12:15:27;20.84;47.92
66596;SHT31;59017;49.252;18.838;2023-01-13T12:22:59;20.84;47.63
66596;SHT31;59017;49.252;18.838;2023-01-13T12:25:30;20.84;47.71
66596;SHT31;59017;49.252;18.838;2023-01-13T12:28:01;20.81;47.82
66596;SHT31;59017;49.252;18.838;2023-01-13T12:30:31;20.83;47.93
66596;SHT31;59017;49.252;18.838;2023-01-13T12:33:13;20.84;47.87
66596;SHT31;59017;49.252;18.838;2023-01-13T12:35:48;20.86;47.77
66596;SHT31;59017;49.252;18.838;2023-01-13T12:38:19;20.86;47.97
66596;SHT31;59017;49.252;18.838;2023-01-13T12:40:54;20.86;47.87
66596;SHT31;59017;49.252;18.838;2023-01-13T12:43:23;20.84;47.91
66596;SHT31;59017;49.252;18.838;2023-01-13T12:53:49;20.87;47.94
66596;SHT31;59017;49.252;18.838;2023-01-13T12:56:57;20.87;47.84
66596;SHT31;59017;49.252;18.838;2023-01-13T13:01:40;20.87;47.89
66596;SHT31;59017;49.252;18.838;2023-01-13T13:04:08;20.86;47.85
66596;SHT31;59017;49.252;18.838;2023-01-13T13:06:34;20.84;47.88
66596;SHT31;59017;49.252;18.838;2023-01-13T13:09:01;20.84;47.89
66596;SHT31;59017;49.252;18.838;2023-01-13T13:17:02;20.86;47.55
66596;SHT31;59017;49.252;18.838;2023-01-13T13:24:34;20.80;47.76
66596;SHT31;59017;49.252;18.838;2023-01-13T13:27:18;20.83;47.75
66596;SHT31;59017;49.252;18.838;2023-01-13T13:34:45;20.83;47.73
66596;SHT31;59017;49.252;18.838;2023-01-13T13:37:29;20.84;47.92
66596;SHT31;59017;49.252;18.838;2023-01-13T13:39:57;20.83;48.05
66596;SHT31;59017;49.252;18.838;2023-01-13T13:42:43;20.84;47.85
66596;SHT31;59017;49.252;18.838;2023-01-13T13:45:30;20.84;47.93
66596;SHT31;59017;49.252;18.838;2023-01-13T13:48:18;20.77;47.93
66596;SHT31;59017;49.252;18.838;2023-01-13T13:50:47;20.79;47.91
66596;SHT31;59017;49.252;18.838;2023-01-13T13:53:13;20.81;48.01
66596;SHT31;59017;49.252;18.838;2023-01-13T13:55:38;20.81;48.14
66596;SHT31;59017;49.252;18.838;2023-01-13T13:58:04;20.83;48.26
66596;SHT31;59017;49.252;18.838;2023-01-13T14:00:33;20.83;48.03
66596;SHT31;59017;49.252;18.838;2023-01-13T14:03:00;20.81;48.29
66596;SHT31;59017;49.252;18.838;2023-01-13T14:05:35;20.83;48.32
66596;SHT31;59017;49.252;18.838;2023-01-13T14:08:02;20.83;48.35
66596;SHT31;59017;49.252;18.838;2023-01-13T14:10:32;20.84;48.43
66596;SHT31;59017;49.252;18.838;2023-01-13T14:12:59;20.81;48.46
66596;SHT31;59017;49.252;18.838;2023-01-13T14:15:26;20.83;48.57
66596;SHT31;59017;49.252;18.838;2023-01-13T14:17:51;20.86;48.73
66596;SHT31;59017;49.252;18.838;2023-01-13T14:20:17;20.84;48.89
66596;SHT31;59017;49.252;18.838;2023-01-13T14:22:48;20.86;48.73
66596;SHT31;59017;49.252;18.838;2023-01-13T14:27:53;20.89;48.75
66596;SHT31;59017;49.252;18.838;2023-01-13T14:30:18;20.89;48.93
66596;SHT31;59017;49.252;18.838;2023-01-13T14:32:45;20.86;48.66
66596;SHT31;59017;49.252;18.838;2023-01-13T14:35:14;20.87;48.81
66596;SHT31;59017;49.252;18.838;2023-01-13T14:37:40;20.86;48.67
66596;SHT31;59017;49.252;18.838;2023-01-13T14:40:51;20.86;48.73
66596;SHT31;59017;49.252;18.838;2023-01-13T14:43:11;20.86;48.52
66596;SHT31;59017;49.252;18.838;2023-01-13T14:45:37;20.84;48.64
66596;SHT31;59017;49.252;18.838;2023-01-13T14:48:06;20.86;48.64
66596;SHT31;59017;49.252;18.838;2023-01-13T14:50:32;20.87;48.57
66596;SHT31;59017;49.252;18.838;2023-01-13T14:52:59;20.89;48.52
66596;SHT31;59017;49.252;18.838;2023-01-13T14:55:31;20.87;48.47
66596;SHT31;59017;49.252;18.838;2023-01-13T15:03:45;20.89;48.36
66596;SHT31;59017;49.252;18.838;2023-01-13T15:06:25;20.86;48.34
66596;SHT31;59017;49.252;18.838;2023-01-13T15:08:50;20.86;48.28
66596;SHT31;59017;49.252;18.838;2023-01-13T15:11:20;20.86;48.34
66596;SHT31;59017;49.252;18.838;2023-01-13T15:13:47;20.84;48.37
66596;SHT31;59017;49.252;18.838;2023-01-13T15:16:20;20.86;48.22
66596;SHT31;59017;49.252;18.838;2023-01-13T15:18:46;20.86;48.44
66596;SHT31;59017;49.252;18.838;2023-01-13T15:21:11;20.86;48.22
66596;SHT31;59017;49.252;18.838;2023-01-13T15:23:37;20.84;48.14
66596;SHT31;59017;49.252;18.838;2023-01-13T15:26:08;20.84;48.25
66596;SHT31;59017;49.252;18.838;2023-01-13T15:28:38;20.84;48.20
66596;SHT31;59017;49.252;18.838;2023-01-13T15:31:03;20.83;47.90
66596;SHT31;59017;49.252;18.838;2023-01-13T15:33:28;20.80;48.15
66596;SHT31;59017;49.252;18.838;2023-01-13T15:35:53;20.80;48.28
66596;SHT31;59017;49.252;18.838;2023-01-13T15:38:22;20.77;48.59
66596;SHT31;59017;49.252;18.838;2023-01-13T15:40:48;20.81;48.73
66596;SHT31;59017;49.252;18.838;2023-01-13T15:43:14;20.81;49.78
66596;SHT31;59017;49.252;18.838;2023-01-13T15:45:59;20.84;49.72
66596;SHT31;59017;49.252;18.838;2023-01-13T15:48:44;20.89;49.41
66596;SHT31;59017;49.252;18.838;2023-01-13T15:51:10;20.90;49.15
66596;SHT31;59017;49.252;18.838;2023-01-13T15:53:35;21.07;48.99
66596;SHT31;59017;49.252;18.838;2023-01-13T15:56:01;21.03;48.71
66596;SHT31;59017;49.252;18.838;2023-01-13T15:58:27;20.94;48.87
66596;SHT31;59017;49.252;18.838;2023-01-13T16:00:54;20.94;49.14
66596;SHT31;59017;49.252;18.838;2023-01-13T16:03:19;20.93;49.27
66596;SHT31;59017;49.252;18.838;2023-01-13T16:05:45;20.94;49.04
66596;SHT31;59017;49.252;18.838;2023-01-13T16:08:14;20.93;49.11
66596;SHT31;59017;49.252;18.838;2023-01-13T16:10:39;20.93;49.29
66596;SHT31;59017;49.252;18.838;2023-01-13T16:13:05;20.93;49.37
66596;SHT31;59017;49.252;18.838;2023-01-13T16:15:30;20.89;49.40
66596;SHT31;59017;49.252;18.838;2023-01-13T16:17:57;20.90;49.48
66596;SHT31;59017;49.252;18.838;2023-01-13T16:20:23;20.87;49.34
66596;SHT31;59017;49.252;18.838;2023-01-13T16:22:48;20.86;49.21
66596;SHT31;59017;49.252;18.838;2023-01-13T16:25:14;20.87;49.35
66596;SHT31;59017;49.252;18.838;2023-01-13T16:27:40;20.86;49.27
66596;SHT31;59017;49.252;18.838;2023-01-13T16:30:05;20.86;49.05
66596;SHT31;59017;49.252;18.838;2023-01-13T16:32:31;20.87;49.21
66596;SHT31;59017;49.252;18.838;2023-01-13T16:34:56;20.84;49.00
66596;SHT31;59017;49.252;18.838;2023-01-13T16:37:25;20.83;48.92
66596;SHT31;59017;49.252;18.838;2023-01-13T16:39:50;20.81;48.96
66596;SHT31;59017;49.252;18.838;2023-01-13T16:42:16;20.83;49.18
66596;SHT31;59017;49.252;18.838;2023-01-13T16:44:41;20.83;48.94
66596;SHT31;59017;49.252;18.838;2023-01-13T16:47:14;20.84;48.89
66596;SHT31;59017;49.252;18.838;2023-01-13T16:49:40;20.84;48.86
66596;SHT31;59017;49.252;18.838;2023-01-13T16:52:06;20.81;48.79
66596;SHT31;59017;49.252;18.838;2023-01-13T16:54:31;20.83;48.63
66596;SHT31;59017;49.252;18.838;2023-01-13T16:56:56;20.81;48.75
66596;SHT31;59017;49.252;18.838;2023-01-13T16:59:22;20.80;48.65
66596;SHT31;59017;49.252;18.838;2023-01-13T17:01:47;20.80;48.50
66596;SHT31;59017;49.252;18.838;2023-01-13T17:04:13;20.81;48.70
66596;SHT31;59017;49.252;18.838;2023-01-13T17:07:21;20.79;48.79
66596;SHT31;59017;49.252;18.838;2023-01-13T17:09:28;20.81;48.56
66596;SHT31;59017;49.252;18.838;2023-01-13T17:11:53;20.80;48.29
66596;SHT31;59017;49.252;18.838;2023-01-13T17:14:19;20.80;48.26
66596;SHT31;59017;49.252;18.838;2023-01-13T17:16:47;20.80;48.49
66596;SHT31;59017;49.252;18.838;2023-01-13T17:19:13;20.83;48.50
66596;SHT31;59017;49.252;18.838;2023-01-13T17:21:38;20.80;48.40
66596;SHT31;59017;49.252;18.838;2023-01-13T17:24:04;20.81;48.39